Time;durP1;ratioP1;P1;durP2;ratioP2;P2;SDS_P1;SDS_P2;PMS_P1;PMS_P2;Temp;Humidity;BMP_temperature;BMP_pressure;BME280_temperature;BME280_humidity;BME280_pressure;Samples;Min_cycle;Max_cycle;Signal;HPM_P1;HPM_P2
2023/01/07 00:01:01;;;;;;;12.63;11.02;;;;;;;8.10;100.00;101481.41;6148287;23;20483;-88
2023/01/07 00:03:27;;;;;;;13.27;11.20;;;;;;;8.09;100.00;101466.41;6120854;23;20010;-88
2023/01/07 00:05:58;;;;;;;12.60;11.30;;;;;;;8.10;100.00;101472.56;6148464;23;20392;-87
2023/01/07 00:08:23;;;;;;;14.50;11.23;;;;;;;8.14;100.00;101475.09;6146823;23;20092;-88
2023/01/07 00:10:48;;;;;;;12.45;10.63;;;;;;;8.14;100.00;101463.63;6122283;23;20044;-87
2023/01/07 00:13:14;;;;;;;12.15;10.75;;;;;;;8.13;100.00;101464.53;6121218;23;20084;-87
2023/01/07 00:15:39;;;;;;;17.15;10.27;;;;;;;8.07;100.00;101459.41;6146946;23;20391;-87
2023/01/07 00:18:04;;;;;;;12.00;10.80;;;;;;;8.09;100.00;101457.59;6147819;23;20009;-87
2023/01/07 00:20:29;;;;;;;12.45;10.20;;;;;;;8.05;100.00;101467.41;6146818;23;20125;-88
2023/01/07 00:22:55;;;;;;;11.05;9.75;;;;;;;7.99;100.00;101464.97;6147359;23;20308;-87
2023/01/07 00:25:20;;;;;;;11.43;10.27;;;;;;;8.06;100.00;101457.69;6147841;23;20017;-87
2023/01/07 00:27:45;;;;;;;10.95;9.88;;;;;;;8.09;100.00;101460.25;6147701;23;20082;-87
2023/01/07 00:30:11;;;;;;;10.98;9.68;;;;;;;8.14;100.00;101466.25;6146919;23;20010;-88
2023/01/07 00:33:21;;;;;;;12.00;9.57;;;;;;;8.15;100.00;101460.94;6145670;23;20013;-88
2023/01/07 00:35:25;;;;;;;10.00;9.02;;;;;;;8.14;100.00;101445.06;6131222;23;20749;-88
2023/01/07 00:37:52;;;;;;;11.10;9.07;;;;;;;8.23;100.00;101455.38;6147201;23;20009;-88
2023/01/07 00:40:18;;;;;;;12.68;9.60;;;;;;;8.17;100.00;101439.66;6146822;23;20005;-88
2023/01/07 00:42:53;;;;;;;10.38;9.32;;;;;;;8.22;100.00;101446.53;6119639;23;20028;-88
2023/01/07 00:45:22;;;;;;;10.75;8.77;;;;;;;8.18;100.00;101444.91;6145586;23;20001;-88
2023/01/07 00:47:48;;;;;;;11.52;9.32;;;;;;;8.18;100.00;101446.69;6120940;23;20076;-88
2023/01/07 00:50:13;;;;;;;10.50;9.15;;;;;;;8.15;100.00;101446.78;6146834;23;20025;-88
2023/01/07 00:52:39;;;;;;;11.25;9.23;;;;;;;8.10;100.00;101430.16;6145231;23;20072;-88
2023/01/07 00:55:05;;;;;;;11.77;9.20;;;;;;;8.13;100.00;101440.69;6146709;23;20055;-89
2023/01/07 00:57:30;;;;;;;9.98;8.98;;;;;;;8.05;100.00;101430.31;6145873;23;20006;-87
2023/01/07 00:59:55;;;;;;;11.35;8.85;;;;;;;8.02;100.00;101425.09;6145910;23;20446;-88
2023/01/07 01:02:21;;;;;;;11.60;9.25;;;;;;;7.93;100.00;101422.72;6144329;23;20371;-88
2023/01/07 01:04:46;;;;;;;10.75;9.65;;;;;;;7.94;100.00;101425.34;6145472;23;20013;-88
2023/01/07 01:07:11;;;;;;;10.18;9.02;;;;;;;7.96;100.00;101420.00;6120034;23;20026;-88
2023/01/07 01:09:37;;;;;;;11.07;9.30;;;;;;;7.89;100.00;101410.47;6145101;23;20005;-87
2023/01/07 01:12:02;;;;;;;14.73;9.88;;;;;;;7.82;100.00;101401.00;6146081;23;20109;-88
2023/01/07 01:14:27;;;;;;;12.52;9.88;;;;;;;7.87;100.00;101407.88;6145603;23;20056;-87
2023/01/07 01:16:53;;;;;;;9.10;8.20;;;;;;;7.89;100.00;101408.69;6147225;23;20187;-88
2023/01/07 01:19:18;;;;;;;10.23;9.23;;;;;;;7.82;100.00;101393.91;6122211;23;20009;-88
2023/01/07 01:21:43;;;;;;;12.45;9.43;;;;;;;7.88;100.00;101400.81;6144718;23;20573;-88
2023/01/07 01:24:09;;;;;;;9.73;8.73;;;;;;;7.92;100.00;101400.66;6147670;23;20097;-87
2023/01/07 01:26:34;;;;;;;11.43;8.63;;;;;;;7.94;100.00;101395.28;6146282;23;20076;-88
2023/01/07 01:28:59;;;;;;;10.80;8.20;;;;;;;7.97;100.00;101393.41;6145744;23;20240;-86
2023/01/07 01:31:25;;;;;;;11.80;8.95;;;;;;;7.98;100.00;101396.94;6118824;23;20001;-87
2023/01/07 01:33:54;;;;;;;10.52;7.97;;;;;;;7.96;100.00;101393.47;6144956;23;20056;-88
2023/01/07 01:36:21;;;;;;;9.15;8.18;;;;;;;7.93;100.00;101399.72;6146290;23;20001;-87
2023/01/07 01:38:47;;;;;;;9.80;8.23;;;;;;;7.90;100.00;101386.59;6145187;23;20005;-87
2023/01/07 01:41:15;;;;;;;10.50;8.57;;;;;;;7.93;100.00;101397.09;6144777;23;20018;-87
2023/01/07 01:43:43;;;;;;;10.18;8.55;;;;;;;7.88;100.00;101380.47;6145507;23;20016;-87
2023/01/07 01:46:34;;;;;;;10.50;8.77;;;;;;;7.81;100.00;101368.31;6148564;23;20013;-88
2023/01/07 01:49:06;;;;;;;9.50;8.50;;;;;;;7.97;100.00;101387.25;6149053;23;20258;-88
2023/01/07 01:51:35;;;;;;;10.88;8.13;;;;;;;7.95;100.00;101383.81;6149448;23;20343;-87
2023/01/07 01:54:05;;;;;;;8.95;8.05;;;;;;;8.02;100.00;101387.09;6166710;23;20009;-87
2023/01/07 01:56:34;;;;;;;10.30;7.82;;;;;;;7.98;100.00;101378.38;6170504;23;20020;-87
2023/01/07 01:59:04;;;;;;;9.05;8.23;;;;;;;8.02;100.00;101384.47;6169365;23;20328;-88
2023/01/07 02:01:33;;;;;;;10.00;7.88;;;;;;;8.01;100.00;101388.03;6168482;23;20862;-88
2023/01/07 02:04:00;;;;;;;10.43;8.23;;;;;;;8.02;100.00;101384.47;6170365;23;20021;-88
2023/01/07 02:06:29;;;;;;;11.18;8.40;;;;;;;7.94;100.00;101368.78;6173064;23;20010;-88
2023/01/07 02:08:55;;;;;;;11.77;8.70;;;;;;;7.98;100.00;101376.63;6170670;23;20013;-88
2023/01/07 02:11:34;;;;;;;10.70;9.02;;;;;;;7.97;100.00;101379.31;6132012;23;20021;-87
2023/01/07 02:14:10;;;;;;;10.10;8.48;;;;;;;7.99;100.00;101377.50;6155730;23;20029;-88
2023/01/07 02:16:47;;;;;;;10.52;9.35;;;;;;;7.96;100.00;101372.28;6155131;23;20076;-88
2023/01/07 02:19:47;;;;;;;12.50;9.10;;;;;;;7.97;100.00;101377.50;6162269;23;20014;-88
2023/01/07 02:22:38;;;;;;;9.63;8.63;;;;;;;7.97;100.00;101384.59;6161300;23;20077;-88
2023/01/07 02:25:18;;;;;;;11.00;8.52;;;;;;;7.99;100.00;101381.00;6165640;23;20010;-88
2023/01/07 02:28:07;;;;;;;11.63;8.65;;;;;;;8.02;100.00;101376.50;6137636;23;20024;-88
2023/01/07 02:30:54;;;;;;;9.75;8.73;;;;;;;8.05;100.00;101369.31;6162375;23;20485;-88
2023/01/07 02:33:37;;;;;;;10.00;8.35;;;;;;;7.96;100.00;101351.94;6151687;23;20002;-88
2023/01/07 02:36:22;;;;;;;9.18;8.20;;;;;;;8.08;100.00;101379.84;6150042;23;20040;-88
2023/01/07 02:39:05;;;;;;;11.82;8.85;;;;;;;8.03;100.00;101378.25;6149601;23;20013;-88
2023/01/07 02:41:34;;;;;;;9.60;8.60;;;;;;;7.96;100.00;101369.63;6147966;23;20522;-88
2023/01/07 02:44:23;;;;;;;10.00;7.85;;;;;;;7.96;100.00;101372.28;6149635;23;20010;-88
2023/01/07 02:47:02;;;;;;;12.48;8.63;;;;;;;7.94;100.00;101361.72;6148733;23;20008;-88
2023/01/07 02:49:28;;;;;;;8.88;7.07;;;;;;;7.97;100.00;101358.09;6148327;23;20044;-88
2023/01/07 02:51:53;;;;;;;9.10;7.47;;;;;;;7.95;100.00;101358.16;6121671;23;20647;-88
2023/01/07 02:54:27;;;;;;;10.43;7.95;;;;;;;7.97;100.00;101361.63;6121541;23;20015;-88
2023/01/07 02:57:17;;;;;;;11.20;8.02;;;;;;;7.94;100.00;101361.72;6148477;23;20121;-87
2023/01/07 03:00:20;;;;;;;8.80;7.90;;;;;;;7.99;100.00;101356.28;6147687;23;20009;-87
2023/01/07 03:03:26;;;;;;;9.13;8.20;;;;;;;8.05;100.00;101360.50;6146816;23;20170;-87
2023/01/07 03:06:09;;;;;;;9.13;7.57;;;;;;;8.08;100.00;101357.75;6148750;23;20009;-88
2023/01/07 03:08:52;;;;;;;9.18;7.82;;;;;;;8.08;100.00;101349.81;6120448;23;20030;-88
2023/01/07 03:11:22;;;;;;;10.65;8.60;;;;;;;8.11;100.00;101344.38;6147042;23;20001;-88
2023/01/07 03:13:59;;;;;;;9.88;7.57;;;;;;;8.16;100.00;101350.44;6120531;23;20037;-88
2023/01/07 03:16:38;;;;;;;9.23;7.53;;;;;;;8.16;100.00;101345.13;6147048;23;20014;-88
2023/01/07 03:19:12;;;;;;;8.57;7.05;;;;;;;8.10;100.00;101335.56;6145899;23;20005;-88
2023/01/07 03:21:38;;;;;;;9.93;7.05;;;;;;;8.09;100.00;101325.03;6145624;23;20409;-87
2023/01/07 03:24:05;;;;;;;9.65;7.18;;;;;;;8.11;100.00;101336.44;6148917;23;20005;-87
2023/01/07 03:26:35;;;;;;;7.85;6.88;;;;;;;8.13;100.00;101334.63;6149026;23;20015;-87
2023/01/07 03:29:03;;;;;;;7.90;7.15;;;;;;;8.12;100.00;101325.81;6147269;23;20001;-87
2023/01/07 03:31:29;;;;;;;7.80;6.45;;;;;;;8.05;100.00;101326.03;6145815;23;20068;-87
2023/01/07 03:34:11;;;;;;;7.57;6.88;;;;;;;8.03;100.00;101319.94;6146301;23;20586;-86
2023/01/07 03:36:40;;;;;;;6.95;6.18;;;;;;;8.11;100.00;101323.19;6148021;23;20041;-86
2023/01/07 03:39:12;;;;;;;6.57;5.95;;;;;;;8.01;100.00;101305.84;6119350;23;20140;-86
2023/01/07 03:44:23;;;;;;;8.48;6.22;;;;;;;8.14;100.00;101320.44;6147095;23;20021;-87
2023/01/07 03:46:49;;;;;;;8.13;6.65;;;;;;;8.16;100.00;101314.19;6121401;23;20333;-87
2023/01/07 03:49:14;;;;;;;7.88;6.40;;;;;;;8.15;100.00;101316.84;6147176;23;20005;-87
2023/01/07 03:51:40;;;;;;;6.78;5.95;;;;;;;8.18;100.00;101314.09;6146169;23;20005;-87
2023/01/07 03:54:05;;;;;;;6.75;5.80;;;;;;;8.22;100.00;101313.94;6146201;23;20001;-86
2023/01/07 03:56:30;;;;;;;7.28;6.18;;;;;;;8.15;100.00;101299.19;6145439;23;20006;-87
2023/01/07 03:58:55;;;;;;;7.20;5.72;;;;;;;8.21;100.00;101298.09;6145435;23;20092;-86
2023/01/07 04:01:21;;;;;;;7.53;5.55;;;;;;;8.20;100.00;101305.19;6144805;23;20040;-86
2023/01/07 04:03:46;;;;;;;7.90;5.57;;;;;;;8.18;100.00;101299.06;6146254;23;20009;-87
2023/01/07 04:06:11;;;;;;;9.77;5.88;;;;;;;8.21;100.00;101298.97;6145570;23;20004;-86
2023/01/07 04:08:37;;;;;;;8.95;5.97;;;;;;;8.24;100.00;101298.00;6144740;23;20007;-86
2023/01/07 04:11:02;;;;;;;6.95;5.60;;;;;;;8.24;100.00;101300.66;6146313;23;20033;-87
2023/01/07 04:13:28;;;;;;;8.85;6.30;;;;;;;8.23;100.00;101296.25;6145980;23;20084;-86
2023/01/07 04:15:53;;;;;;;7.00;5.82;;;;;;;8.21;100.00;101288.38;6146709;23;20463;-86
2023/01/07 04:18:18;;;;;;;7.47;5.95;;;;;;;8.19;100.00;101287.56;6146286;23;20006;-86
2023/01/07 04:20:46;;;;;;;6.43;5.10;;;;;;;8.11;100.00;101275.44;6147074;23;20020;-87
2023/01/07 04:23:11;;;;;;;5.20;4.70;;;;;;;8.11;100.00;101281.66;6148627;23;20121;-87
2023/01/07 04:25:36;;;;;;;6.47;4.97;;;;;;;8.07;100.00;101272.06;6152397;23;20001;-87
2023/01/07 04:28:01;;;;;;;7.20;5.03;;;;;;;8.02;100.00;101267.81;6157033;23;20432;-87
2023/01/07 04:30:27;;;;;;;7.68;5.28;;;;;;;8.03;100.00;101261.63;6166775;23;20009;-87
2023/01/07 04:32:52;;;;;;;7.03;4.90;;;;;;;8.05;100.00;101265.94;6173426;23;20017;-87
2023/01/07 04:35:17;;;;;;;7.93;4.80;;;;;;;8.10;100.00;101268.44;6170251;23;20000;-87
2023/01/07 04:37:43;;;;;;;5.90;4.68;;;;;;;8.09;100.00;101256.97;6170693;23;20064;-87
2023/01/07 04:40:08;;;;;;;6.50;5.00;;;;;;;8.08;100.00;101243.78;6155046;23;20029;-87
2023/01/07 04:42:34;;;;;;;6.50;4.70;;;;;;;8.10;100.00;101236.63;6154811;23;20072;-88
2023/01/07 04:44:59;;;;;;;6.32;4.95;;;;;;;8.18;100.00;101243.38;6155242;23;20009;-88
2023/01/07 04:47:24;;;;;;;6.50;4.78;;;;;;;8.18;100.00;101240.72;6153783;23;20550;-87
2023/01/07 04:49:49;;;;;;;7.00;4.50;;;;;;;8.15;100.00;101238.22;6149215;23;20434;-87
2023/01/07 04:52:15;;;;;;;6.35;4.30;;;;;;;8.19;100.00;101239.84;6148177;23;20001;-87
2023/01/07 04:54:40;;;;;;;4.85;4.43;;;;;;;8.22;100.00;101238.84;6123687;23;20491;-87
2023/01/07 04:57:05;;;;;;;7.55;4.53;;;;;;;8.17;100.00;101233.69;6151093;23;20072;-86
2023/01/07 04:59:31;;;;;;;5.60;4.72;;;;;;;8.12;100.00;101230.34;6150148;23;20017;-87
2023/01/07 05:01:56;;;;;;;4.85;4.43;;;;;;;8.12;100.00;101218.88;6148891;23;20562;-87
2023/01/07 05:04:21;;;;;;;5.18;4.65;;;;;;;8.10;100.00;101220.69;6147991;23;20017;-87
2023/01/07 05:06:46;;;;;;;5.93;4.47;;;;;;;8.18;100.00;101218.66;6120889;23;19998;-87
2023/01/07 05:09:12;;;;;;;5.97;4.32;;;;;;;8.15;100.00;101213.44;6147204;23;20059;-87
2023/01/07 05:11:37;;;;;;;5.63;4.28;;;;;;;8.19;100.00;101218.63;6146055;23;20353;-87
2023/01/07 05:14:02;;;;;;;4.97;4.35;;;;;;;8.21;100.00;101216.75;6147803;23;20009;-86
2023/01/07 05:16:28;;;;;;;5.75;4.28;;;;;;;8.25;100.00;101220.19;6120702;23;20242;-87
2023/01/07 05:18:53;;;;;;;6.35;4.53;;;;;;;8.26;100.00;101221.03;6120553;23;20024;-87
2023/01/07 05:21:19;;;;;;;9.25;4.18;;;;;;;8.28;100.00;101211.22;6146114;23;20009;-86
2023/01/07 05:23:44;;;;;;;5.32;4.03;;;;;;;8.29;100.00;101203.25;6146977;23;20009;-86
2023/01/07 05:26:09;;;;;;;5.22;4.00;;;;;;;8.24;100.00;101211.38;6147333;23;19997;-87
2023/01/07 05:28:35;;;;;;;4.50;3.58;;;;;;;8.19;100.00;101200.06;6148533;23;20005;-86
2023/01/07 05:31:00;;;;;;;4.35;3.75;;;;;;;8.20;100.00;101208.88;6148492;23;20079;-86
2023/01/07 05:33:26;;;;;;;5.68;3.72;;;;;;;8.13;100.00;101199.41;6144557;23;20009;-86
2023/01/07 05:35:51;;;;;;;4.07;3.60;;;;;;;8.17;100.00;101201.88;6145917;23;20005;-87
2023/01/07 05:38:16;;;;;;;5.18;3.72;;;;;;;8.12;100.00;101201.19;6119573;23;20037;-87
2023/01/07 05:40:42;;;;;;;4.97;3.53;;;;;;;8.17;100.00;101204.53;6144515;23;20020;-87
2023/01/07 05:43:07;;;;;;;4.95;3.58;;;;;;;8.19;100.00;101204.47;6144857;23;20068;-87
2023/01/07 05:45:33;;;;;;;5.45;3.80;;;;;;;8.19;100.00;101200.06;6144617;23;20020;-87
2023/01/07 05:47:58;;;;;;;4.30;3.40;;;;;;;8.21;100.00;101202.66;6145305;23;20001;-87
2023/01/07 05:50:23;;;;;;;4.47;3.40;;;;;;;8.19;100.00;101197.41;6142416;23;20029;-87
2023/01/07 05:52:52;;;;;;;6.63;3.58;;;;;;;8.30;100.00;101201.44;6144599;23;20085;-88
2023/01/07 05:55:17;;;;;;;4.20;3.78;;;;;;;8.26;100.00;101200.69;6144164;23;20409;-87
2023/01/07 05:57:42;;;;;;;3.67;3.38;;;;;;;8.28;100.00;101187.38;6145310;23;20016;-88
2023/01/07 06:00:09;;;;;;;4.22;3.03;;;;;;;8.17;100.00;101182.47;6144499;23;20454;-87
2023/01/07 06:02:35;;;;;;;4.32;3.22;;;;;;;8.32;100.00;101192.53;6144308;23;20013;-87
2023/01/07 06:05:00;;;;;;;3.70;3.05;;;;;;;8.29;100.00;101184.69;6145935;23;20318;-88
2023/01/07 06:07:26;;;;;;;4.20;3.45;;;;;;;8.29;100.00;101182.03;6145283;23;20025;-87
2023/01/07 06:09:51;;;;;;;4.75;3.35;;;;;;;8.28;100.00;101182.94;6145472;23;20005;-88
2023/01/07 06:12:16;;;;;;;3.72;3.05;;;;;;;8.30;100.00;101175.78;6144385;23;20049;-87
2023/01/07 06:14:42;;;;;;;3.97;3.10;;;;;;;8.28;100.00;101185.59;6143247;23;20826;-86
2023/01/07 06:17:07;;;;;;;5.47;2.90;;;;;;;8.29;100.00;101173.22;6143981;23;20002;-87
2023/01/07 06:19:32;;;;;;;3.28;2.97;;;;;;;8.24;100.00;101170.72;6144176;23;20367;-87
2023/01/07 06:21:58;;;;;;;2.80;2.60;;;;;;;8.25;100.00;101172.44;6145046;23;20084;-87
2023/01/07 06:24:23;;;;;;;4.28;2.78;;;;;;;8.24;100.00;101171.59;6145310;23;20025;-87
2023/01/07 06:26:48;;;;;;;3.58;2.90;;;;;;;8.21;100.00;101161.09;6146088;23;20442;-86
2023/01/07 06:29:14;;;;;;;5.40;3.10;;;;;;;8.16;100.00;101146.28;6145464;23;20001;-87
2023/01/07 06:31:39;;;;;;;2.83;2.53;;;;;;;8.18;100.00;101160.31;6153837;23;20009;-86
2023/01/07 06:34:05;;;;;;;2.97;2.67;;;;;;;8.15;100.00;101153.34;6164257;23;20037;-88
2023/01/07 06:36:30;;;;;;;3.10;2.80;;;;;;;8.15;100.00;101150.72;6163005;23;20080;-88
2023/01/07 06:38:55;;;;;;;3.17;2.88;;;;;;;8.17;100.00;101155.94;6163068;23;20001;-87
2023/01/07 06:41:20;;;;;;;3.53;2.67;;;;;;;8.18;100.00;101141.75;6156249;23;20025;-88
2023/01/07 06:43:46;;;;;;;3.35;2.65;;;;;;;8.17;100.00;101137.38;6155955;23;20005;-88
2023/01/07 06:46:11;;;;;;;2.72;2.53;;;;;;;8.16;100.00;101135.66;6145949;23;20080;-88
2023/01/07 06:48:36;;;;;;;3.88;2.40;;;;;;;8.10;100.00;101119.97;6147890;23;20005;-88
2023/01/07 06:51:02;;;;;;;2.88;2.30;;;;;;;8.17;100.00;101126.78;6150693;23;20434;-88
2023/01/07 06:53:27;;;;;;;2.97;2.45;;;;;;;8.10;100.00;101122.59;6149354;23;20009;-87
2023/01/07 06:55:53;;;;;;;3.67;2.30;;;;;;;8.14;100.00;101125.09;6152080;23;20013;-87
2023/01/07 06:58:18;;;;;;;3.97;2.60;;;;;;;8.12;100.00;101119.00;6156680;23;20013;-86
2023/01/07 07:00:44;;;;;;;2.97;2.55;;;;;;;8.06;100.00;101110.38;6167200;23;20000;-87
2023/01/07 07:03:09;;;;;;;3.35;2.17;;;;;;;8.13;100.00;101122.50;6169707;23;20037;-88
2023/01/07 07:05:35;;;;;;;2.72;2.08;;;;;;;8.09;100.00;101111.16;6172306;23;20005;-87
2023/01/07 07:08:00;;;;;;;2.38;2.10;;;;;;;8.12;100.00;101118.13;6139007;23;20434;-87
2023/01/07 07:10:26;;;;;;;2.78;2.38;;;;;;;8.12;100.00;101118.13;6156486;23;20499;-87
2023/01/07 07:12:51;;;;;;;3.60;2.55;;;;;;;8.08;100.00;101112.06;6156723;23;20005;-87
2023/01/07 07:15:17;;;;;;;3.05;2.10;;;;;;;8.05;100.00;101108.66;6154130;23;20001;-87
2023/01/07 07:17:42;;;;;;;2.10;1.90;;;;;;;8.13;100.00;101109.25;6154320;23;20006;-87
2023/01/07 07:20:08;;;;;;;2.30;2.10;;;;;;;8.14;100.00;101109.19;6153488;23;20020;-87
2023/01/07 07:22:33;;;;;;;2.53;2.25;;;;;;;8.15;100.00;101121.53;6152877;23;20024;-87
2023/01/07 07:24:59;;;;;;;2.40;2.20;;;;;;;8.14;100.00;101111.84;6125336;23;20516;-87
2023/01/07 07:27:24;;;;;;;2.60;2.20;;;;;;;8.09;100.00;101099.69;6155042;23;20088;-87
2023/01/07 07:29:49;;;;;;;2.40;2.20;;;;;;;8.14;100.00;101103.88;6151099;23;20009;-87
2023/01/07 07:32:15;;;;;;;3.42;2.20;;;;;;;8.12;100.00;101091.63;6149748;23;20013;-88
2023/01/07 07:34:40;;;;;;;5.43;2.63;;;;;;;8.13;100.00;101096.84;6148575;23;20104;-88
2023/01/07 07:37:05;;;;;;;2.50;2.25;;;;;;;8.14;100.00;101100.38;6147204;23;20002;-88
2023/01/07 07:39:31;;;;;;;3.08;2.40;;;;;;;8.15;100.00;101088.84;6148481;23;20841;-88
2023/01/07 07:41:56;;;;;;;3.45;2.35;;;;;;;8.15;100.00;101094.13;6147889;23;20018;-87
2023/01/07 07:44:21;;;;;;;4.15;3.05;;;;;;;8.18;100.00;101094.03;6147751;23;20327;-88
2023/01/07 07:46:46;;;;;;;2.80;2.50;;;;;;;8.16;100.00;101093.25;6147464;23;20001;-87
2023/01/07 07:49:12;;;;;;;2.53;2.28;;;;;;;8.11;100.00;101079.25;6146750;23;20009;-87
2023/01/07 07:51:37;;;;;;;3.30;3.00;;;;;;;8.14;100.00;101090.63;6145112;23;20001;-87
2023/01/07 07:54:03;;;;;;;2.65;2.35;;;;;;;8.21;100.00;101091.28;6147182;23;20009;-87
2023/01/07 07:56:29;;;;;;;2.80;2.33;;;;;;;8.24;100.00;101093.81;6146511;23;20041;-87
2023/01/07 07:58:54;;;;;;;3.40;2.30;;;;;;;8.27;100.00;101080.44;6145784;23;20021;-87
2023/01/07 08:01:19;;;;;;;3.17;2.33;;;;;;;8.30;100.00;101080.31;6145389;23;20094;-88
2023/01/07 08:03:45;;;;;;;2.45;2.03;;;;;;;8.29;100.00;101070.63;6146685;23;20035;-87
2023/01/07 08:06:11;;;;;;;3.13;2.30;;;;;;;8.30;100.00;101080.31;6145576;23;20009;-88
2023/01/07 08:08:36;;;;;;;3.08;2.30;;;;;;;8.31;100.00;101078.53;6148038;23;20006;-87
2023/01/07 08:11:02;;;;;;;2.50;2.30;;;;;;;8.32;100.00;101062.56;6144049;23;20027;-87
2023/01/07 08:13:29;;;;;;;3.53;2.47;;;;;;;8.37;100.00;101065.94;6145929;23;20385;-87
2023/01/07 08:15:54;;;;;;;2.85;2.50;;;;;;;8.35;100.00;101070.41;6147211;23;20374;-87
2023/01/07 08:18:19;;;;;;;2.85;2.38;;;;;;;8.32;100.00;101059.94;6146235;23;20009;-88
2023/01/07 08:20:46;;;;;;;2.40;2.20;;;;;;;8.37;100.00;101071.25;6145321;23;20044;-87
2023/01/07 08:23:11;;;;;;;2.28;1.90;;;;;;;8.38;100.00;101058.84;6146793;23;20042;-87
2023/01/07 08:25:36;;;;;;;2.22;2.00;;;;;;;8.42;100.00;101063.13;6146594;23;20013;-87
2023/01/07 08:28:03;;;;;;;2.33;2.13;;;;;;;8.40;100.00;101065.84;6119811;23;20014;-87
2023/01/07 08:30:29;;;;;;;2.50;2.30;;;;;;;8.47;100.00;101066.44;6144840;23;20587;-88
2023/01/07 08:32:55;;;;;;;2.20;2.00;;;;;;;8.45;100.00;101058.56;6119434;23;20033;-87
2023/01/07 08:35:21;;;;;;;3.25;2.70;;;;;;;8.46;100.00;101046.16;6145894;23;20028;-87
2023/01/07 08:37:46;;;;;;;3.65;2.35;;;;;;;8.51;100.00;101056.59;6147425;23;20738;-91
2023/01/07 08:40:12;;;;;;;3.13;2.83;;;;;;;8.53;100.00;101046.75;6145516;23;20075;-91
2023/01/07 08:42:39;;;;;;;2.10;2.00;;;;;;;8.54;100.00;101056.47;6145554;23;20009;-86
2023/01/07 08:45:06;;;;;;;3.22;2.40;;;;;;;8.55;100.00;101039.63;6144746;23;20336;-88
2023/01/07 08:47:31;;;;;;;2.40;2.20;;;;;;;8.58;100.00;101039.50;6147763;23;20001;-90
2023/01/07 08:49:56;;;;;;;2.90;2.20;;;;;;;8.59;100.00;101038.59;6118612;23;20020;-89
2023/01/07 08:52:23;;;;;;;2.53;2.33;;;;;;;8.61;100.00;101036.72;6146648;23;20047;-90
2023/01/07 08:54:49;;;;;;;4.35;2.53;;;;;;;8.61;100.00;101031.41;6146927;23;20001;-92
2023/01/07 08:57:15;;;;;;;2.88;2.10;;;;;;;8.60;100.00;101027.91;6121162;23;20013;-88
2023/01/07 08:59:42;;;;;;;2.30;2.10;;;;;;;8.67;100.00;101034.69;6144627;23;20009;-88
2023/01/07 09:02:16;;;;;;;3.00;2.50;;;;;;;8.71;100.00;101038.97;6146590;23;20008;-89
2023/01/07 09:04:42;;;;;;;2.42;2.13;;;;;;;8.65;100.00;101025.06;6145955;23;20044;-89
2023/01/07 09:07:08;;;;;;;3.42;2.00;;;;;;;8.75;100.00;101036.19;6145975;23;20006;-90
2023/01/07 09:09:33;;;;;;;2.13;1.73;;;;;;;8.77;100.00;101040.50;6119452;23;20163;-89
2023/01/07 09:11:59;;;;;;;2.38;1.90;;;;;;;8.79;100.00;101035.13;6145350;23;20670;-86
2023/01/07 09:14:24;;;;;;;1.83;1.73;;;;;;;8.73;100.00;101009.69;6145827;23;20017;-87
2023/01/07 09:16:49;;;;;;;3.90;2.03;;;;;;;8.86;99.78;101013.59;6144405;23;20037;-87
2023/01/07 09:19:15;;;;;;;2.35;1.98;;;;;;;8.84;98.93;101002.16;6145267;23;20009;-88
2023/01/07 09:21:40;;;;;;;3.42;1.98;;;;;;;8.92;98.85;101005.38;6155830;23;20001;-87
2023/01/07 09:24:06;;;;;;;2.80;1.70;;;;;;;8.82;98.70;100984.56;6167541;23;20013;-89
2023/01/07 09:26:31;;;;;;;2.75;1.90;;;;;;;8.95;98.30;100999.94;6138524;23;20012;-88
2023/01/07 09:28:56;;;;;;;2.03;1.80;;;;;;;8.98;97.07;101004.25;6140823;23;20009;-88
2023/01/07 09:31:22;;;;;;;1.70;1.60;;;;;;;9.03;97.39;100998.72;6171586;23;20016;-87
2023/01/07 09:33:47;;;;;;;2.10;1.80;;;;;;;9.02;97.39;100991.72;6143338;23;19997;-87
2023/01/07 09:36:13;;;;;;;2.95;2.00;;;;;;;9.08;97.40;101002.09;6162057;23;20013;-88
2023/01/07 09:38:38;;;;;;;2.30;1.92;;;;;;;9.06;97.09;100991.50;6150288;23;20399;-88
2023/01/07 09:41:14;;;;;;;3.15;2.10;;;;;;;9.12;96.54;100990.41;6148990;23;20092;-87
2023/01/07 09:43:46;;;;;;;2.38;1.92;;;;;;;9.21;94.46;100984.69;6124470;23;20087;-86
2023/01/07 09:46:12;;;;;;;1.95;1.75;;;;;;;9.26;95.99;100972.06;6150045;23;20006;-87
2023/01/07 09:48:50;;;;;;;2.83;1.88;;;;;;;9.42;95.28;100981.09;6147582;23;20536;-88
2023/01/07 09:51:39;;;;;;;2.10;1.90;;;;;;;9.42;94.72;100967.81;6122955;23;20334;-87
2023/01/07 09:54:16;;;;;;;1.95;1.80;;;;;;;9.40;94.19;100967.00;6148786;23;20088;-86
2023/01/07 09:56:41;;;;;;;2.55;1.65;;;;;;;9.40;94.45;100969.66;6147695;23;20010;-86
2023/01/07 09:59:09;;;;;;;1.90;1.80;;;;;;;9.42;92.97;100973.13;6146611;23;20015;-87
2023/01/07 10:01:53;;;;;;;2.72;1.90;;;;;;;9.43;93.88;100969.53;6146488;23;20010;-86
2023/01/07 10:04:27;;;;;;;1.80;1.70;;;;;;;9.41;93.16;100963.44;6120542;23;20009;-86
2023/01/07 10:07:05;;;;;;;1.80;1.63;;;;;;;9.38;91.72;100949.44;6118608;23;20085;-86
2023/01/07 10:09:37;;;;;;;2.42;2.15;;;;;;;9.42;92.91;100959.84;6142955;23;20009;-86
2023/01/07 10:12:15;;;;;;;3.42;1.90;;;;;;;9.33;93.68;100941.66;6119746;23;20101;-86
2023/01/07 10:15:14;;;;;;;2.20;2.00;;;;;;;9.43;92.86;100944.78;6146507;23;20001;-87
2023/01/07 10:18:05;;;;;;;2.28;1.63;;;;;;;9.44;92.30;100936.72;6144887;23;20041;-88
2023/01/07 10:20:51;;;;;;;2.40;1.98;;;;;;;9.39;92.75;100925.44;6146674;23;20009;-86
2023/01/07 10:23:24;;;;;;;3.25;1.73;;;;;;;9.39;92.17;100920.13;6145638;23;20001;-87
2023/01/07 10:25:53;;;;;;;2.67;1.90;;;;;;;9.46;90.15;100913.63;6146333;23;20012;-87
2023/01/07 10:28:31;;;;;;;2.58;1.80;;;;;;;9.49;90.76;100909.97;6143069;23;20116;-87
2023/01/07 10:30:58;;;;;;;1.80;1.70;;;;;;;9.27;91.59;100866.69;6163824;23;19994;-87
2023/01/07 10:33:28;;;;;;;2.08;1.75;;;;;;;9.53;89.92;100900.94;6142341;23;20081;-87
2023/01/07 10:36:26;;;;;;;2.28;1.60;;;;;;;9.57;91.10;100897.22;6172201;23;19989;-87
2023/01/07 10:39:10;;;;;;;1.90;1.63;;;;;;;9.57;90.30;100889.22;6141818;23;20005;-87
2023/01/07 10:41:47;;;;;;;2.30;1.75;;;;;;;9.57;89.83;100878.59;6141102;23;19998;-88
2023/01/07 10:44:25;;;;;;;3.13;1.60;;;;;;;9.60;90.16;100862.50;6123323;23;20022;-87
2023/01/07 10:47:04;;;;;;;1.70;1.60;;;;;;;9.60;89.07;100862.50;6118438;23;20033;-87
2023/01/07 10:49:56;;;;;;;1.70;1.60;;;;;;;9.68;88.87;100859.47;6115953;23;20484;-86
2023/01/07 10:52:51;;;;;;;2.20;1.80;;;;;;;9.62;88.33;100847.34;6081587;23;20533;-87
2023/01/07 10:55:40;;;;;;;2.28;1.60;;;;;;;9.70;88.85;100844.34;6117405;23;20010;-87
2023/01/07 10:58:10;;;;;;;2.10;1.70;;;;;;;9.69;86.54;100856.75;6120393;23;20443;-87
2023/01/07 11:00:35;;;;;;;1.60;1.50;;;;;;;9.70;86.30;100839.03;6119212;23;20018;-88
2023/01/07 11:03:00;;;;;;;1.58;1.48;;;;;;;9.67;85.24;100833.84;6119034;23;20521;-87
2023/01/07 11:05:35;;;;;;;1.40;1.30;;;;;;;9.58;86.12;100821.00;6118650;23;20026;-88
2023/01/07 11:08:02;;;;;;;1.60;1.50;;;;;;;9.67;85.95;100831.19;6118831;23;20005;-86
2023/01/07 11:10:32;;;;;;;2.10;1.90;;;;;;;9.68;83.16;100817.81;6117875;23;20081;-87
2023/01/07 11:13:00;;;;;;;2.05;1.85;;;;;;;9.70;82.86;100810.66;6119367;23;20002;-87
2023/01/07 11:15:38;;;;;;;1.75;1.40;;;;;;;9.68;84.18;100806.34;6117687;23;20455;-87
2023/01/07 11:18:10;;;;;;;1.63;1.52;;;;;;;9.73;84.08;100820.25;6116792;23;20034;-87
2023/01/07 11:20:47;;;;;;;2.22;1.77;;;;;;;9.81;83.14;100804.81;6116515;23;20020;-87
2023/01/07 11:23:35;;;;;;;4.38;3.05;;;;;;;10.02;84.54;100818.00;6115802;23;20010;-87
2023/01/07 11:26:09;;;;;;;2.47;1.90;;;;;;;10.09;82.79;100808.78;6119277;23;20328;-87
2023/01/07 11:28:36;;;;;;;2.00;1.80;;;;;;;10.14;83.06;100804.94;6117241;23;20006;-87
2023/01/07 11:31:01;;;;;;;2.00;1.60;;;;;;;10.14;81.43;100777.50;6117712;23;20009;-88
2023/01/07 11:33:39;;;;;;;1.80;1.70;;;;;;;10.18;80.38;100776.41;6117160;23;20048;-88
2023/01/07 11:36:05;;;;;;;1.80;1.70;;;;;;;10.20;79.99;100782.53;6117984;23;19998;-87